sensor_id;sensor_type;location;lat;lon;timestamp;pressure;altitude;pressure_sealevel;temperature;humidity
78841;BME280;68379;47.190;27.558;2024-01-27T00:01:50;100118.48;;;-1.16;70.49
78841;BME280;68379;47.190;27.558;2024-01-27T00:04:22;100119.70;;;-1.16;70.56
78841;BME280;68379;47.190;27.558;2024-01-27T00:06:53;100111.66;;;-1.21;70.58
78841;BME280;68379;47.190;27.558;2024-01-27T00:09:25;100114.40;;;-1.24;70.75
78841;BME280;68379;47.190;27.558;2024-01-27T00:11:57;100110.35;;;-1.30;70.96
78841;BME280;68379;47.190;27.558;2024-01-27T00:14:29;100105.10;;;-1.33;70.58
78841;BME280;68379;47.190;27.558;2024-01-27T00:17:01;100103.30;;;-1.38;70.39
78841;BME280;68379;47.190;27.558;2024-01-27T00:19:32;100110.14;;;-1.45;71.22
78841;BME280;68379;47.190;27.558;2024-01-27T00:22:04;100102.79;;;-1.50;71.52
78841;BME280;68379;47.190;27.558;2024-01-27T00:24:36;100106.53;;;-1.56;72.18
78841;BME280;68379;47.190;27.558;2024-01-27T00:27:07;100110.92;;;-1.63;72.45
78841;BME280;68379;47.190;27.558;2024-01-27T00:29:39;100111.17;;;-1.71;72.43
78841;BME280;68379;47.190;27.558;2024-01-27T00:32:10;100116.86;;;-1.73;72.29
78841;BME280;68379;47.190;27.558;2024-01-27T00:34:42;100110.45;;;-1.73;72.32
78841;BME280;68379;47.190;27.558;2024-01-27T00:37:14;100111.84;;;-1.72;72.47
78841;BME280;68379;47.190;27.558;2024-01-27T00:39:45;100115.10;;;-1.74;72.42
78841;BME280;68379;47.190;27.558;2024-01-27T00:42:17;100113.71;;;-1.74;72.57
78841;BME280;68379;47.190;27.558;2024-01-27T00:44:53;100117.02;;;-1.74;73.12
78841;BME280;68379;47.190;27.558;2024-01-27T00:47:25;100110.05;;;-1.75;72.99
78841;BME280;68379;47.190;27.558;2024-01-27T00:49:57;100111.95;;;-1.75;73.24
78841;BME280;68379;47.190;27.558;2024-01-27T00:52:29;100110.22;;;-1.77;73.34
78841;BME280;68379;47.190;27.558;2024-01-27T00:55:01;100106.02;;;-1.78;73.49
78841;BME280;68379;47.190;27.558;2024-01-27T00:57:33;100109.48;;;-1.79;73.54
78841;BME280;68379;47.190;27.558;2024-01-27T01:00:06;100106.73;;;-1.77;73.26
78841;BME280;68379;47.190;27.558;2024-01-27T01:02:38;100104.17;;;-1.75;73.09
78841;BME280;68379;47.190;27.558;2024-01-27T01:05:11;100102.50;;;-1.71;72.75
78841;BME280;68379;47.190;27.558;2024-01-27T01:07:42;100096.83;;;-1.68;72.97
78841;BME280;68379;47.190;27.558;2024-01-27T01:10:14;100101.70;;;-1.66;72.99
78841;BME280;68379;47.190;27.558;2024-01-27T01:12:46;100102.92;;;-1.66;72.91
78841;BME280;68379;47.190;27.558;2024-01-27T01:15:18;100097.39;;;-1.66;72.98
78841;BME280;68379;47.190;27.558;2024-01-27T01:17:49;100092.89;;;-1.65;72.89
78841;BME280;68379;47.190;27.558;2024-01-27T01:20:21;100082.15;;;-1.65;73.01
78841;BME280;68379;47.190;27.558;2024-01-27T01:22:56;100077.64;;;-1.65;73.03
78841;BME280;68379;47.190;27.558;2024-01-27T01:25:27;100080.95;;;-1.64;73.18
78841;BME280;68379;47.190;27.558;2024-01-27T01:27:59;100085.10;;;-1.64;73.02
78841;BME280;68379;47.190;27.558;2024-01-27T01:30:30;100079.37;;;-1.65;72.94
78841;BME280;68379;47.190;27.558;2024-01-27T01:33:02;100072.28;;;-1.64;72.80
78841;BME280;68379;47.190;27.558;2024-01-27T01:35:34;100064.33;;;-1.63;72.98
78841;BME280;68379;47.190;27.558;2024-01-27T01:38:06;100067.30;;;-1.61;72.85
78841;BME280;68379;47.190;27.558;2024-01-27T01:40:37;100063.85;;;-1.60;72.88
78841;BME280;68379;47.190;27.558;2024-01-27T01:43:12;100058.48;;;-1.60;73.11
78841;BME280;68379;47.190;27.558;2024-01-27T01:45:44;100059.86;;;-1.60;72.92
78841;BME280;68379;47.190;27.558;2024-01-27T01:48:16;100060.25;;;-1.58;72.92
78841;BME280;68379;47.190;27.558;2024-01-27T01:50:48;100055.07;;;-1.57;73.22
78841;BME280;68379;47.190;27.558;2024-01-27T01:53:20;100052.27;;;-1.58;73.06
78841;BME280;68379;47.190;27.558;2024-01-27T01:55:53;100049.51;;;-1.57;73.03
78841;BME280;68379;47.190;27.558;2024-01-27T01:58:26;100046.57;;;-1.57;73.18
78841;BME280;68379;47.190;27.558;2024-01-27T02:01:04;100040.67;;;-1.57;73.07
78841;BME280;68379;47.190;27.558;2024-01-27T02:03:35;100039.31;;;-1.56;73.01
78841;BME280;68379;47.190;27.558;2024-01-27T02:06:07;100042.80;;;-1.55;72.97
78841;BME280;68379;47.190;27.558;2024-01-27T02:08:39;100042.30;;;-1.52;72.99
78841;BME280;68379;47.190;27.558;2024-01-27T02:11:11;100046.66;;;-1.50;72.99
78841;BME280;68379;47.190;27.558;2024-01-27T02:13:43;100043.73;;;-1.49;72.91
78841;BME280;68379;47.190;27.558;2024-01-27T02:16:15;100040.27;;;-1.47;72.85
78841;BME280;68379;47.190;27.558;2024-01-27T02:18:47;100037.36;;;-1.45;72.92
78841;BME280;68379;47.190;27.558;2024-01-27T02:21:19;100041.70;;;-1.44;72.88
78841;BME280;68379;47.190;27.558;2024-01-27T02:23:50;100040.66;;;-1.44;72.96
78841;BME280;68379;47.190;27.558;2024-01-27T02:26:22;100036.67;;;-1.44;72.82
78841;BME280;68379;47.190;27.558;2024-01-27T02:28:53;100034.89;;;-1.48;72.75
78841;BME280;68379;47.190;27.558;2024-01-27T02:31:25;100041.27;;;-1.51;72.95
78841;BME280;68379;47.190;27.558;2024-01-27T02:33:56;100037.60;;;-1.54;73.15
78841;BME280;68379;47.190;27.558;2024-01-27T02:36:28;100040.02;;;-1.55;73.24
78841;BME280;68379;47.190;27.558;2024-01-27T02:38:59;100034.14;;;-1.54;73.25
78841;BME280;68379;47.190;27.558;2024-01-27T02:41:31;100019.95;;;-1.53;73.37
78841;BME280;68379;47.190;27.558;2024-01-27T02:44:06;100015.10;;;-1.52;73.55
78841;BME280;68379;47.190;27.558;2024-01-27T02:46:38;100020.09;;;-1.56;73.60
78841;BME280;68379;47.190;27.558;2024-01-27T02:49:10;100027.33;;;-1.58;73.62
78841;BME280;68379;47.190;27.558;2024-01-27T02:51:42;100025.96;;;-1.57;73.61
78841;BME280;68379;47.190;27.558;2024-01-27T02:54:14;100019.73;;;-1.56;73.91
78841;BME280;68379;47.190;27.558;2024-01-27T02:56:46;100018.13;;;-1.59;73.84
78841;BME280;68379;47.190;27.558;2024-01-27T02:59:18;100017.59;;;-1.61;74.02
78841;BME280;68379;47.190;27.558;2024-01-27T03:01:50;100021.04;;;-1.62;73.84
78841;BME280;68379;47.190;27.558;2024-01-27T03:04:22;100013.61;;;-1.60;73.65
78841;BME280;68379;47.190;27.558;2024-01-27T03:06:54;100007.26;;;-1.56;73.62
78841;BME280;68379;47.190;27.558;2024-01-27T03:09:25;99999.48;;;-1.55;73.76
78841;BME280;68379;47.190;27.558;2024-01-27T03:11:57;99992.55;;;-1.54;73.56
78841;BME280;68379;47.190;27.558;2024-01-27T03:14:29;99993.13;;;-1.50;73.56
78841;BME280;68379;47.190;27.558;2024-01-27T03:17:00;99985.54;;;-1.46;73.50
78841;BME280;68379;47.190;27.558;2024-01-27T03:19:32;99988.33;;;-1.46;73.50
78841;BME280;68379;47.190;27.558;2024-01-27T03:22:05;99996.98;;;-1.46;73.46
78841;BME280;68379;47.190;27.558;2024-01-27T03:24:36;99994.20;;;-1.46;73.40
78841;BME280;68379;47.190;27.558;2024-01-27T03:27:08;99992.66;;;-1.45;73.42
78841;BME280;68379;47.190;27.558;2024-01-27T03:29:40;99985.73;;;-1.43;73.22
78841;BME280;68379;47.190;27.558;2024-01-27T03:32:12;99981.25;;;-1.41;73.13
78841;BME280;68379;47.190;27.558;2024-01-27T03:34:45;99972.95;;;-1.41;72.99
78841;BME280;68379;47.190;27.558;2024-01-27T03:37:17;99974.85;;;-1.42;73.02
78841;BME280;68379;47.190;27.558;2024-01-27T03:39:48;99973.09;;;-1.43;72.92
78841;BME280;68379;47.190;27.558;2024-01-27T03:42:20;99961.48;;;-1.44;73.01
78841;BME280;68379;47.190;27.558;2024-01-27T03:44:54;99965.09;;;-1.47;73.04
78841;BME280;68379;47.190;27.558;2024-01-27T03:47:25;99958.64;;;-1.51;72.96
78841;BME280;68379;47.190;27.558;2024-01-27T03:49:57;99958.92;;;-1.55;73.17
78841;BME280;68379;47.190;27.558;2024-01-27T03:52:29;99955.40;;;-1.61;73.22
78841;BME280;68379;47.190;27.558;2024-01-27T03:55:01;99951.36;;;-1.66;73.25
78841;BME280;68379;47.190;27.558;2024-01-27T03:57:33;99953.02;;;-1.70;73.32
78841;BME280;68379;47.190;27.558;2024-01-27T04:00:06;99952.31;;;-1.73;73.28
78841;BME280;68379;47.190;27.558;2024-01-27T04:02:38;99950.58;;;-1.74;73.32
78841;BME280;68379;47.190;27.558;2024-01-27T04:05:10;99950.55;;;-1.75;73.34
78841;BME280;68379;47.190;27.558;2024-01-27T04:07:43;99958.67;;;-1.77;73.38
78841;BME280;68379;47.190;27.558;2024-01-27T04:10:15;99959.02;;;-1.78;73.42
78841;BME280;68379;47.190;27.558;2024-01-27T04:12:48;99956.73;;;-1.79;73.51
78841;BME280;68379;47.190;27.558;2024-01-27T04:15:20;99957.07;;;-1.80;73.49
78841;BME280;68379;47.190;27.558;2024-01-27T04:17:51;99955.00;;;-1.80;73.57
78841;BME280;68379;47.190;27.558;2024-01-27T04:20:24;99958.46;;;-1.80;73.54
78841;BME280;68379;47.190;27.558;2024-01-27T04:22:56;99956.55;;;-1.80;73.47
78841;BME280;68379;47.190;27.558;2024-01-27T04:25:28;99958.44;;;-1.81;73.44
78841;BME280;68379;47.190;27.558;2024-01-27T04:27:59;99963.29;;;-1.81;73.45
78841;BME280;68379;47.190;27.558;2024-01-27T04:30:31;99968.32;;;-1.80;73.50
78841;BME280;68379;47.190;27.558;2024-01-27T04:33:02;99976.27;;;-1.82;73.57
78841;BME280;68379;47.190;27.558;2024-01-27T04:35:37;99978.15;;;-1.83;73.63
78841;BME280;68379;47.190;27.558;2024-01-27T04:38:09;99976.94;;;-1.83;73.81
78841;BME280;68379;47.190;27.558;2024-01-27T04:40:41;99978.69;;;-1.83;73.94
78841;BME280;68379;47.190;27.558;2024-01-27T04:43:16;99980.39;;;-1.84;73.99
78841;BME280;68379;47.190;27.558;2024-01-27T04:45:50;99977.40;;;-1.88;74.04
78841;BME280;68379;47.190;27.558;2024-01-27T04:48:22;99983.60;;;-1.92;74.17
78841;BME280;68379;47.190;27.558;2024-01-27T04:50:53;99980.83;;;-1.92;73.93
78841;BME280;68379;47.190;27.558;2024-01-27T04:53:26;99972.37;;;-1.89;73.84
78841;BME280;68379;47.190;27.558;2024-01-27T04:55:58;99973.47;;;-1.84;73.83
78841;BME280;68379;47.190;27.558;2024-01-27T04:58:30;99975.41;;;-1.80;73.71
78841;BME280;68379;47.190;27.558;2024-01-27T05:01:02;99978.17;;;-1.82;74.01
78841;BME280;68379;47.190;27.558;2024-01-27T05:03:34;99979.85;;;-1.86;74.02
78841;BME280;68379;47.190;27.558;2024-01-27T05:06:09;99981.03;;;-1.89;74.01
78841;BME280;68379;47.190;27.558;2024-01-27T05:08:40;99980.52;;;-1.88;74.08
78841;BME280;68379;47.190;27.558;2024-01-27T05:11:12;99977.75;;;-1.87;74.05
78841;BME280;68379;47.190;27.558;2024-01-27T05:13:43;99974.98;;;-1.89;74.24
78841;BME280;68379;47.190;27.558;2024-01-27T05:16:15;99981.86;;;-1.91;74.30
78841;BME280;68379;47.190;27.558;2024-01-27T05:18:47;99988.43;;;-1.93;74.41
78841;BME280;68379;47.190;27.558;2024-01-27T05:21:19;99988.95;;;-1.93;74.46
78841;BME280;68379;47.190;27.558;2024-01-27T05:23:50;99986.69;;;-1.93;74.58
78841;BME280;68379;47.190;27.558;2024-01-27T05:26:22;99983.79;;;-1.91;74.72
78841;BME280;68379;47.190;27.558;2024-01-27T05:28:54;99982.77;;;-1.88;74.58
78841;BME280;68379;47.190;27.558;2024-01-27T05:31:27;99983.64;;;-1.88;74.50
78841;BME280;68379;47.190;27.558;2024-01-27T05:33:58;99986.91;;;-1.89;74.62
78841;BME280;68379;47.190;27.558;2024-01-27T05:36:30;99982.86;;;-1.96;74.90
78841;BME280;68379;47.190;27.558;2024-01-27T05:39:02;99980.61;;;-1.95;74.83
78841;BME280;68379;47.190;27.558;2024-01-27T05:41:34;99979.29;;;-1.90;74.79
78841;BME280;68379;47.190;27.558;2024-01-27T05:44:07;99981.77;;;-1.84;74.51
78841;BME280;68379;47.190;27.558;2024-01-27T05:46:38;99981.52;;;-1.77;74.40
78841;BME280;68379;47.190;27.558;2024-01-27T05:49:10;99993.84;;;-1.77;74.57
78841;BME280;68379;47.190;27.558;2024-01-27T05:51:42;99991.86;;;-1.81;74.64
78841;BME280;68379;47.190;27.558;2024-01-27T05:54:14;100000.46;;;-1.86;74.92
78841;BME280;68379;47.190;27.558;2024-01-27T05:56:46;100003.68;;;-1.92;75.28
78841;BME280;68379;47.190;27.558;2024-01-27T05:59:18;100006.91;;;-1.96;75.36
78841;BME280;68379;47.190;27.558;2024-01-27T06:01:51;100013.28;;;-1.99;75.45
78841;BME280;68379;47.190;27.558;2024-01-27T06:04:22;100010.15;;;-2.00;75.34
78841;BME280;68379;47.190;27.558;2024-01-27T06:06:54;100009.11;;;-1.99;75.58
78841;BME280;68379;47.190;27.558;2024-01-27T06:09:26;100011.89;;;-1.99;75.70
78841;BME280;68379;47.190;27.558;2024-01-27T06:12:00;100012.08;;;-1.98;75.72
78841;BME280;68379;47.190;27.558;2024-01-27T06:14:32;100012.61;;;-1.97;75.82
78841;BME280;68379;47.190;27.558;2024-01-27T06:17:06;100017.83;;;-1.95;75.67
78841;BME280;68379;47.190;27.558;2024-01-27T06:19:38;100014.76;;;-1.92;75.71
78841;BME280;68379;47.190;27.558;2024-01-27T06:22:10;100021.54;;;-1.89;75.88
78841;BME280;68379;47.190;27.558;2024-01-27T06:24:45;100025.54;;;-1.87;75.82
78841;BME280;68379;47.190;27.558;2024-01-27T06:27:16;100021.77;;;-1.86;75.80
78841;BME280;68379;47.190;27.558;2024-01-27T06:29:48;100022.30;;;-1.85;75.90
78841;BME280;68379;47.190;27.558;2024-01-27T06:32:19;100025.58;;;-1.85;75.83
78841;BME280;68379;47.190;27.558;2024-01-27T06:34:51;100028.86;;;-1.85;75.63
78841;BME280;68379;47.190;27.558;2024-01-27T06:37:22;100025.08;;;-1.84;75.67
78841;BME280;68379;47.190;27.558;2024-01-27T06:39:54;100029.81;;;-1.79;75.51
78841;BME280;68379;47.190;27.558;2024-01-27T06:42:26;100030.54;;;-1.77;75.30
78841;BME280;68379;47.190;27.558;2024-01-27T06:44:57;100038.50;;;-1.77;75.40
78841;BME280;68379;47.190;27.558;2024-01-27T06:47:29;100036.98;;;-1.75;75.32
78841;BME280;68379;47.190;27.558;2024-01-27T06:50:00;100037.55;;;-1.71;75.10
78841;BME280;68379;47.190;27.558;2024-01-27T06:52:33;100040.59;;;-1.63;75.15
78841;BME280;68379;47.190;27.558;2024-01-27T06:55:06;100041.91;;;-1.56;74.88
78841;BME280;68379;47.190;27.558;2024-01-27T06:57:37;100043.55;;;-1.49;74.82
78841;BME280;68379;47.190;27.558;2024-01-27T07:00:12;100043.98;;;-1.41;74.84
78841;BME280;68379;47.190;27.558;2024-01-27T07:02:45;100048.96;;;-1.32;74.73
78841;BME280;68379;47.190;27.558;2024-01-27T07:05:17;100049.73;;;-1.27;74.28
78841;BME280;68379;47.190;27.558;2024-01-27T07:07:49;100051.81;;;-1.26;74.18
78841;BME280;68379;47.190;27.558;2024-01-27T07:10:21;100050.48;;;-1.21;74.23
78841;BME280;68379;47.190;27.558;2024-01-27T07:12:53;100053.79;;;-1.18;74.07
78841;BME280;68379;47.190;27.558;2024-01-27T07:15:24;100052.77;;;-1.16;74.29
78841;BME280;68379;47.190;27.558;2024-01-27T07:17:57;100058.27;;;-1.20;74.37
78841;BME280;68379;47.190;27.558;2024-01-27T07:20:29;100055.69;;;-1.20;74.55
78841;BME280;68379;47.190;27.558;2024-01-27T07:23:01;100056.70;;;-1.23;74.95
78841;BME280;68379;47.190;27.558;2024-01-27T07:25:32;100056.11;;;-1.29;75.48
78841;BME280;68379;47.190;27.558;2024-01-27T07:28:05;100057.92;;;-1.35;76.18
78841;BME280;68379;47.190;27.558;2024-01-27T07:30:37;100052.17;;;-1.39;76.43
78841;BME280;68379;47.190;27.558;2024-01-27T07:33:09;100050.91;;;-1.43;76.76
78841;BME280;68379;47.190;27.558;2024-01-27T07:35:41;100043.69;;;-1.38;76.27
78841;BME280;68379;47.190;27.558;2024-01-27T07:38:13;100047.29;;;-1.28;76.69
78841;BME280;68379;47.190;27.558;2024-01-27T07:40:45;100041.96;;;-1.22;77.52
78841;BME280;68379;47.190;27.558;2024-01-27T07:43:16;100036.64;;;-1.19;77.27
78841;BME280;68379;47.190;27.558;2024-01-27T07:45:48;100041.88;;;-1.14;77.45
78841;BME280;68379;47.190;27.558;2024-01-27T07:48:22;100042.63;;;-1.10;78.07
78841;BME280;68379;47.190;27.558;2024-01-27T07:50:54;100046.33;;;-1.03;77.86
78841;BME280;68379;47.190;27.558;2024-01-27T07:53:26;100047.80;;;-0.95;77.59
78841;BME280;68379;47.190;27.558;2024-01-27T07:55:58;100055.70;;;-0.88;76.91
78841;BME280;68379;47.190;27.558;2024-01-27T07:58:31;100055.59;;;-0.80;77.54
78841;BME280;68379;47.190;27.558;2024-01-27T08:01:03;100055.80;;;-0.77;77.04
78841;BME280;68379;47.190;27.558;2024-01-27T08:03:35;100055.66;;;-0.73;77.34
78841;BME280;68379;47.190;27.558;2024-01-27T08:06:15;100055.36;;;-0.69;76.87
78841;BME280;68379;47.190;27.558;2024-01-27T08:08:46;100055.55;;;-0.67;77.45
78841;BME280;68379;47.190;27.558;2024-01-27T08:11:18;100058.18;;;-0.63;77.34
78841;BME280;68379;47.190;27.558;2024-01-27T08:13:50;100055.42;;;-0.61;76.95
78841;BME280;68379;47.190;27.558;2024-01-27T08:16:22;100059.27;;;-0.59;77.12
78841;BME280;68379;47.190;27.558;2024-01-27T08:18:54;100054.26;;;-0.56;77.32
78841;BME280;68379;47.190;27.558;2024-01-27T08:21:26;100055.52;;;-0.51;77.19
78841;BME280;68379;47.190;27.558;2024-01-27T08:23:58;100054.87;;;-0.45;77.55
78841;BME280;68379;47.190;27.558;2024-01-27T08:26:30;100051.47;;;-0.37;77.46
78841;BME280;68379;47.190;27.558;2024-01-27T08:29:02;100049.27;;;-0.31;77.13
78841;BME280;68379;47.190;27.558;2024-01-27T08:31:34;100052.10;;;-0.24;77.28
78841;BME280;68379;47.190;27.558;2024-01-27T08:34:08;100046.60;;;-0.17;77.36
78841;BME280;68379;47.190;27.558;2024-01-27T08:36:42;100047.35;;;-0.08;77.49
78841;BME280;68379;47.190;27.558;2024-01-27T08:39:14;100045.15;;;-0.00;77.41
78841;BME280;68379;47.190;27.558;2024-01-27T08:41:45;100049.38;;;0.10;77.70
78841;BME280;68379;47.190;27.558;2024-01-27T08:44:17;100050.46;;;0.15;77.47
78841;BME280;68379;47.190;27.558;2024-01-27T08:46:50;100053.45;;;0.22;77.59
78841;BME280;68379;47.190;27.558;2024-01-27T08:49:22;100055.41;;;0.31;77.50
78841;BME280;68379;47.190;27.558;2024-01-27T08:51:53;100057.55;;;0.41;77.57
78841;BME280;68379;47.190;27.558;2024-01-27T08:54:26;100055.83;;;0.43;77.48
78841;BME280;68379;47.190;27.558;2024-01-27T08:56:58;100045.73;;;0.40;77.45
78841;BME280;68379;47.190;27.558;2024-01-27T08:59:29;100057.25;;;0.51;77.57
78841;BME280;68379;47.190;27.558;2024-01-27T09:02:01;100064.41;;;0.57;77.64
78841;BME280;68379;47.190;27.558;2024-01-27T09:04:33;100062.67;;;0.58;77.36
78841;BME280;68379;47.190;27.558;2024-01-27T09:07:05;100065.48;;;0.60;77.60
78841;BME280;68379;47.190;27.558;2024-01-27T09:09:37;100063.23;;;0.66;77.47
78841;BME280;68379;47.190;27.558;2024-01-27T09:12:10;100062.23;;;0.73;77.60
78841;BME280;68379;47.190;27.558;2024-01-27T09:14:42;100057.23;;;0.82;77.79
78841;BME280;68379;47.190;27.558;2024-01-27T09:17:14;100059.30;;;0.80;77.75
78841;BME280;68379;47.190;27.558;2024-01-27T09:19:46;100062.55;;;0.69;77.79
78841;BME280;68379;47.190;27.558;2024-01-27T09:22:18;100064.84;;;0.75;77.97
78841;BME280;68379;47.190;27.558;2024-01-27T09:24:50;100065.21;;;0.82;77.88
78841;BME280;68379;47.190;27.558;2024-01-27T09:27:22;100061.05;;;0.89;77.95
78841;BME280;68379;47.190;27.558;2024-01-27T09:29:54;100063.86;;;0.92;77.78
78841;BME280;68379;47.190;27.558;2024-01-27T09:32:26;100065.10;;;0.95;77.69
78841;BME280;68379;47.190;27.558;2024-01-27T09:34:58;100068.73;;;0.93;77.78
78841;BME280;68379;47.190;27.558;2024-01-27T09:37:30;100063.83;;;0.84;77.96
78841;BME280;68379;47.190;27.558;2024-01-27T09:40:02;100061.03;;;0.83;78.11
78841;BME280;68379;47.190;27.558;2024-01-27T09:42:34;100058.80;;;0.85;78.24
78841;BME280;68379;47.190;27.558;2024-01-27T09:45:10;100050.77;;;0.81;78.02
78841;BME280;68379;47.190;27.558;2024-01-27T09:47:44;100065.08;;;0.94;78.17
78841;BME280;68379;47.190;27.558;2024-01-27T09:50:18;100061.45;;;0.98;78.03
78841;BME280;68379;47.190;27.558;2024-01-27T09:52:50;100062.84;;;1.02;77.99
78841;BME280;68379;47.190;27.558;2024-01-27T09:55:22;100066.83;;;0.94;78.08
78841;BME280;68379;47.190;27.558;2024-01-27T09:57:55;100067.83;;;0.80;78.56
78841;BME280;68379;47.190;27.558;2024-01-27T10:00:27;100065.55;;;0.78;78.94
78841;BME280;68379;47.190;27.558;2024-01-27T10:02:59;100065.18;;;0.74;78.90
78841;BME280;68379;47.190;27.558;2024-01-27T10:05:32;100064.69;;;0.78;78.97
78841;BME280;68379;47.190;27.558;2024-01-27T10:08:08;100063.96;;;0.72;79.24
78841;BME280;68379;47.190;27.558;2024-01-27T10:10:40;100067.27;;;0.74;79.00
78841;BME280;68379;47.190;27.558;2024-01-27T10:13:16;100061.56;;;0.85;78.94
78841;BME280;68379;47.190;27.558;2024-01-27T10:15:48;100064.40;;;0.97;78.97
78841;BME280;68379;47.190;27.558;2024-01-27T10:18:30;100071.05;;;1.16;78.84
78841;BME280;68379;47.190;27.558;2024-01-27T10:21:14;100073.16;;;1.22;78.33
78841;BME280;68379;47.190;27.558;2024-01-27T10:23:46;100073.52;;;1.26;78.27
78841;BME280;68379;47.190;27.558;2024-01-27T10:26:18;100075.95;;;1.21;78.05
78841;BME280;68379;47.190;27.558;2024-01-27T10:28:55;100074.36;;;1.21;78.18
78841;BME280;68379;47.190;27.558;2024-01-27T10:31:30;100071.09;;;1.30;78.43
78841;BME280;68379;47.190;27.558;2024-01-27T10:34:02;100074.40;;;1.33;78.18
78841;BME280;68379;47.190;27.558;2024-01-27T10:36:44;100079.44;;;1.27;78.09
78841;BME280;68379;47.190;27.558;2024-01-27T10:39:20;100079.42;;;1.20;78.29
78841;BME280;68379;47.190;27.558;2024-01-27T10:41:53;100078.55;;;1.22;78.33
78841;BME280;68379;47.190;27.558;2024-01-27T10:44:25;100080.13;;;1.24;78.33
78841;BME280;68379;47.190;27.558;2024-01-27T10:47:03;100079.93;;;1.17;78.30
78841;BME280;68379;47.190;27.558;2024-01-27T10:49:38;100083.57;;;1.09;78.35
78841;BME280;68379;47.190;27.558;2024-01-27T10:52:15;100081.29;;;1.01;78.37
78841;BME280;68379;47.190;27.558;2024-01-27T10:54:51;100081.95;;;0.94;78.59
78841;BME280;68379;47.190;27.558;2024-01-27T10:57:25;100081.07;;;0.92;78.73
78841;BME280;68379;47.190;27.558;2024-01-27T10:59:57;100083.86;;;0.94;78.87
78841;BME280;68379;47.190;27.558;2024-01-27T11:02:32;100082.67;;;1.01;78.82
78841;BME280;68379;47.190;27.558;2024-01-27T11:05:05;100083.56;;;1.11;78.65
78841;BME280;68379;47.190;27.558;2024-01-27T11:07:39;100087.05;;;1.10;78.33
78841;BME280;68379;47.190;27.558;2024-01-27T11:10:14;100084.09;;;1.06;78.38
78841;BME280;68379;47.190;27.558;2024-01-27T11:12:48;100091.05;;;1.07;78.84
78841;BME280;68379;47.190;27.558;2024-01-27T11:15:23;100091.76;;;1.14;78.88
78841;BME280;68379;47.190;27.558;2024-01-27T11:17:58;100095.42;;;1.15;78.63
78841;BME280;68379;47.190;27.558;2024-01-27T11:20:34;100097.49;;;1.10;78.70
78841;BME280;68379;47.190;27.558;2024-01-27T11:23:13;100099.04;;;1.04;79.07
78841;BME280;68379;47.190;27.558;2024-01-27T11:25:46;100096.77;;;0.98;79.16
78841;BME280;68379;47.190;27.558;2024-01-27T11:28:18;100097.59;;;0.90;79.42
78841;BME280;68379;47.190;27.558;2024-01-27T11:30:57;100102.61;;;0.83;79.60
78841;BME280;68379;47.190;27.558;2024-01-27T11:33:29;100107.06;;;0.70;80.31
78841;BME280;68379;47.190;27.558;2024-01-27T11:36:05;100104.23;;;0.59;80.62
78841;BME280;68379;47.190;27.558;2024-01-27T11:38:38;100108.04;;;0.55;80.76
78841;BME280;68379;47.190;27.558;2024-01-27T11:41:10;100111.86;;;0.54;80.69
78841;BME280;68379;47.190;27.558;2024-01-27T11:43:41;100109.25;;;0.54;80.88
78841;BME280;68379;47.190;27.558;2024-01-27T11:46:22;100107.15;;;0.51;81.13
78841;BME280;68379;47.190;27.558;2024-01-27T11:48:54;100106.77;;;0.45;81.25
78841;BME280;68379;47.190;27.558;2024-01-27T11:51:26;100107.30;;;0.46;81.65
78841;BME280;68379;47.190;27.558;2024-01-27T11:53:58;100111.67;;;0.53;81.80
78841;BME280;68379;47.190;27.558;2024-01-27T11:56:30;100115.52;;;0.57;81.02
78841;BME280;68379;47.190;27.558;2024-01-27T11:59:02;100118.17;;;0.63;81.38
78841;BME280;68379;47.190;27.558;2024-01-27T12:01:34;100117.99;;;0.67;81.04
78841;BME280;68379;47.190;27.558;2024-01-27T12:04:06;100117.00;;;0.73;81.34
78841;BME280;68379;47.190;27.558;2024-01-27T12:06:39;100118.06;;;0.77;80.97
78841;BME280;68379;47.190;27.558;2024-01-27T12:09:11;100119.13;;;0.81;81.36
78841;BME280;68379;47.190;27.558;2024-01-27T12:11:44;100121.23;;;0.85;81.27
78841;BME280;68379;47.190;27.558;2024-01-27T12:14:16;100120.02;;;0.84;80.86
78841;BME280;68379;47.190;27.558;2024-01-27T12:16:48;100117.23;;;0.84;80.77
78841;BME280;68379;47.190;27.558;2024-01-27T12:19:20;100116.53;;;0.85;80.83
78841;BME280;68379;47.190;27.558;2024-01-27T12:21:52;100114.66;;;0.91;80.82
78841;BME280;68379;47.190;27.558;2024-01-27T12:24:25;100119.02;;;0.95;80.73
78841;BME280;68379;47.190;27.558;2024-01-27T12:26:58;100123.36;;;0.97;80.78
78841;BME280;68379;47.190;27.558;2024-01-27T12:29:30;100125.80;;;0.94;80.90
78841;BME280;68379;47.190;27.558;2024-01-27T12:32:06;100130.48;;;0.91;81.12
78841;BME280;68379;47.190;27.558;2024-01-27T12:34:42;100134.48;;;0.95;80.87
78841;BME280;68379;47.190;27.558;2024-01-27T12:37:15;100136.40;;;0.94;81.25
78841;BME280;68379;47.190;27.558;2024-01-27T12:39:47;100140.23;;;0.94;80.99
78841;BME280;68379;47.190;27.558;2024-01-27T12:42:21;100141.11;;;0.97;81.25
78841;BME280;68379;47.190;27.558;2024-01-27T12:44:52;100142.52;;;1.00;81.41
78841;BME280;68379;47.190;27.558;2024-01-27T12:47:24;100146.17;;;1.02;81.44
78841;BME280;68379;47.190;27.558;2024-01-27T12:49:56;100148.44;;;0.99;81.41
78841;BME280;68379;47.190;27.558;2024-01-27T12:52:28;100152.92;;;0.92;81.34
78841;BME280;68379;47.190;27.558;2024-01-27T12:55:00;100155.01;;;0.91;81.34
78841;BME280;68379;47.190;27.558;2024-01-27T12:57:32;100160.21;;;0.91;81.22
78841;BME280;68379;47.190;27.558;2024-01-27T13:00:05;100165.77;;;0.86;81.27
78841;BME280;68379;47.190;27.558;2024-01-27T13:02:40;100166.61;;;0.82;81.48
78841;BME280;68379;47.190;27.558;2024-01-27T13:05:13;100169.76;;;0.85;81.32
78841;BME280;68379;47.190;27.558;2024-01-27T13:07:44;100168.36;;;0.84;81.53
78841;BME280;68379;47.190;27.558;2024-01-27T13:10:16;100170.98;;;0.86;81.58
78841;BME280;68379;47.190;27.558;2024-01-27T13:12:48;100173.41;;;0.87;81.67